Time;durP1;ratioP1;P1;durP2;ratioP2;P2;SDS_P1;SDS_P2;PMS_P1;PMS_P2;Temp;Humidity;BMP_temperature;BMP_pressure;BME280_temperature;BME280_humidity;BME280_pressure;Samples;Min_cycle;Max_cycle;Signal;HPM_P1;HPM_P2
2022/03/29 00:01:53;;;;;;;12.23;7.47;;;;;;;10.53;59.17;93357.69;5031493;28;20046;-80
2022/03/29 00:04:19;;;;;;;11.52;7.35;;;;;;;10.56;59.61;93363.19;5031796;28;20076;-80
2022/03/29 00:06:46;;;;;;;12.35;7.63;;;;;;;10.46;59.47;93354.38;5031381;28;20449;-80
2022/03/29 00:09:15;;;;;;;12.23;8.48;;;;;;;10.49;59.92;93356.50;5014004;28;20050;-81
2022/03/29 00:11:42;;;;;;;16.58;8.43;;;;;;;10.36;59.73;93335.00;5011735;28;20049;-81
2022/03/29 00:14:09;;;;;;;14.60;8.75;;;;;;;10.46;59.74;93352.56;5011722;28;20454;-81
2022/03/29 00:16:36;;;;;;;13.15;8.18;;;;;;;10.36;60.09;93339.34;5011526;28;20510;-81
2022/03/29 00:19:03;;;;;;;13.77;8.77;;;;;;;9.69;60.91;93243.72;5011750;28;20049;-82
2022/03/29 00:21:30;;;;;;;11.93;7.93;;;;;;;10.28;60.42;93315.50;5011585;28;20053;-81
2022/03/29 00:23:57;;;;;;;16.23;9.00;;;;;;;10.33;59.99;93325.16;5011809;28;20046;-81
2022/03/29 00:26:25;;;;;;;15.95;8.85;;;;;;;10.21;60.44;93304.47;5011641;28;20045;-81
2022/03/29 00:28:52;;;;;;;15.18;8.43;;;;;;;10.20;60.54;93299.53;5011495;28;20057;-80
2022/03/29 00:31:19;;;;;;;14.52;9.32;;;;;;;10.31;61.42;93326.38;5011837;28;20056;-80
2022/03/29 00:33:47;;;;;;;15.05;8.77;;;;;;;10.03;61.46;93282.03;5011575;28;20046;-81
2022/03/29 00:36:14;;;;;;;13.10;8.43;;;;;;;10.25;61.48;93310.00;5011263;28;20045;-80
2022/03/29 00:38:41;;;;;;;13.45;8.40;;;;;;;10.26;62.72;93316.69;5011172;28;20052;-81
2022/03/29 00:41:08;;;;;;;12.18;8.30;;;;;;;10.03;61.26;93282.84;5010290;28;20502;-81
2022/03/29 00:43:37;;;;;;;12.60;8.32;;;;;;;10.02;62.54;93277.91;5011387;28;20050;-80
2022/03/29 00:46:04;;;;;;;13.18;8.73;;;;;;;10.06;61.46;93288.56;5011150;28;20483;-81
2022/03/29 00:48:31;;;;;;;12.32;8.50;;;;;;;10.14;61.26;93303.72;5010910;28;20053;-81
2022/03/29 00:50:58;;;;;;;12.98;8.70;;;;;;;10.21;61.32;93317.31;5011018;28;20050;-81
2022/03/29 00:53:26;;;;;;;14.88;9.02;;;;;;;10.02;61.85;93286.41;5011103;28;20046;-80
2022/03/29 00:55:55;;;;;;;13.77;9.40;;;;;;;9.91;63.19;93270.84;5011042;28;20063;-81
2022/03/29 00:58:22;;;;;;;12.00;9.05;;;;;;;9.96;62.78;93278.72;5011155;28;20054;-80
2022/03/29 01:00:52;;;;;;;17.27;9.13;;;;;;;10.08;62.66;93297.63;5025092;28;20053;-81
2022/03/29 01:03:19;;;;;;;14.70;9.32;;;;;;;10.05;61.69;93295.47;5030606;28;20807;-81
2022/03/29 01:05:46;;;;;;;17.33;9.68;;;;;;;9.70;62.13;93247.03;5030576;28;20397;-80
2022/03/29 01:08:13;;;;;;;17.10;10.10;;;;;;;9.67;61.86;93253.38;5021634;28;20495;-79
2022/03/29 01:10:41;;;;;;;15.50;9.70;;;;;;;9.76;62.20;93266.75;5010514;28;20045;-79
2022/03/29 01:13:08;;;;;;;13.82;9.50;;;;;;;9.56;62.40;93246.28;5010710;28;20041;-79
2022/03/29 01:15:38;;;;;;;17.60;10.20;;;;;;;9.45;63.38;93235.66;5010913;28;20049;-79
2022/03/29 01:18:06;;;;;;;16.95;10.50;;;;;;;9.67;63.50;93273.88;5020093;28;20041;-79
2022/03/29 01:20:34;;;;;;;15.85;9.07;;;;;;;9.59;63.34;93264.63;5027044;28;20438;-79
2022/03/29 01:23:02;;;;;;;13.90;9.60;;;;;;;9.47;64.50;93269.59;5028701;28;20041;-79
2022/03/29 01:25:34;;;;;;;17.17;9.35;;;;;;;9.34;64.92;93260.16;5029776;28;20045;-79
2022/03/29 01:28:03;;;;;;;14.63;10.05;;;;;;;9.21;65.86;93243.03;5030281;28;20044;-78
2022/03/29 01:30:30;;;;;;;13.48;10.05;;;;;;;9.07;65.70;93226.09;5030138;28;20049;-78
2022/03/29 01:32:59;;;;;;;21.90;10.68;;;;;;;8.86;67.05;93201.50;4990994;28;20093;-79
2022/03/29 01:35:26;;;;;;;16.45;10.20;;;;;;;9.04;68.08;93247.00;4990888;28;20042;-79
2022/03/29 01:37:54;;;;;;;17.98;10.82;;;;;;;8.76;67.48;93205.25;4990771;28;20050;-78
2022/03/29 01:40:25;;;;;;;17.45;9.57;;;;;;;8.87;68.75;93236.34;4991010;28;20046;-79
2022/03/29 01:42:55;;;;;;;15.30;9.80;;;;;;;8.68;69.29;93206.25;4990825;28;20053;-79
2022/03/29 01:45:24;;;;;;;16.10;9.75;;;;;;;8.60;69.12;93197.97;4991009;28;20053;-78
2022/03/29 01:47:50;;;;;;;20.27;9.75;;;;;;;8.71;69.41;93228.09;4990599;28;20053;-78
2022/03/29 01:50:18;;;;;;;17.23;10.60;;;;;;;8.57;70.69;93216.28;4990436;28;20050;-78
2022/03/29 01:52:47;;;;;;;17.00;10.25;;;;;;;8.38;70.41;93195.56;4990471;28;20054;-78
2022/03/29 01:55:17;;;;;;;14.80;10.35;;;;;;;8.36;70.11;93197.53;4991205;28;20093;-78
2022/03/29 01:57:46;;;;;;;16.20;10.75;;;;;;;8.24;70.84;93190.44;4990443;28;20050;-79
2022/03/29 02:00:34;;;;;;;15.10;10.55;;;;;;;8.21;71.20;93187.47;4999724;28;20045;-80
2022/03/29 02:03:02;;;;;;;16.67;11.27;;;;;;;8.12;71.64;93181.75;5010568;28;20077;-80
2022/03/29 02:05:53;;;;;;;18.52;11.00;;;;;;;8.29;71.72;93213.66;5010730;28;20046;-81
2022/03/29 02:08:20;;;;;;;16.48;10.20;;;;;;;7.42;72.50;93091.56;5009299;28;20074;-80
2022/03/29 02:10:49;;;;;;;17.95;10.73;;;;;;;7.67;73.52;93147.25;5009579;28;20049;-82
2022/03/29 02:13:25;;;;;;;17.50;11.07;;;;;;;8.00;73.91;93205.34;5010126;28;20526;-81
2022/03/29 02:15:53;;;;;;;22.08;12.18;;;;;;;7.59;73.99;93155.09;5010131;28;20050;-82
2022/03/29 02:18:21;;;;;;;16.30;10.88;;;;;;;7.77;74.36;93187.00;5009544;28;20064;-80
2022/03/29 02:20:48;;;;;;;17.27;11.60;;;;;;;7.81;74.91;93191.53;5009764;28;20065;-80
2022/03/29 02:23:15;;;;;;;17.90;12.45;;;;;;;7.58;75.34;93171.41;5009776;28;20230;-80
2022/03/29 02:25:45;;;;;;;18.98;11.18;;;;;;;7.53;75.57;93163.50;5009325;28;20407;-80
2022/03/29 02:28:13;;;;;;;19.85;12.63;;;;;;;7.41;75.56;93153.06;5009570;28;20398;-80
2022/03/29 02:30:41;;;;;;;19.95;12.43;;;;;;;7.67;75.83;93195.81;5009532;28;20384;-80
2022/03/29 02:33:08;;;;;;;20.17;12.32;;;;;;;7.60;75.10;93187.34;5009595;28;20054;-80
2022/03/29 02:35:35;;;;;;;18.10;11.93;;;;;;;6.81;75.53;93065.00;5009050;28;20052;-81
2022/03/29 02:38:02;;;;;;;19.58;11.88;;;;;;;7.52;75.86;93182.38;5009371;28;20140;-81
2022/03/29 02:40:29;;;;;;;17.92;11.75;;;;;;;7.42;75.83;93172.53;5009036;28;20504;-80
2022/03/29 02:42:56;;;;;;;15.98;11.55;;;;;;;7.07;76.98;93135.03;5009179;28;20426;-80
2022/03/29 02:45:25;;;;;;;15.90;10.77;;;;;;;7.42;76.86;93186.09;5009569;28;20046;-80
2022/03/29 02:47:54;;;;;;;17.92;12.43;;;;;;;7.37;77.44;93185.88;5009252;28;20398;-80
2022/03/29 02:50:23;;;;;;;18.23;12.45;;;;;;;7.28;78.63;93184.47;5009076;28;20513;-81
2022/03/29 02:52:52;;;;;;;18.20;11.70;;;;;;;7.20;78.94;93183.66;5009462;28;20053;-81
2022/03/29 02:55:20;;;;;;;17.48;12.10;;;;;;;6.96;78.45;93149.13;5028478;28;20111;-82
2022/03/29 02:57:48;;;;;;;21.85;12.70;;;;;;;7.02;80.25;93168.81;5028942;28;20820;-81
2022/03/29 03:00:16;;;;;;;18.52;12.63;;;;;;;6.86;81.05;93149.50;5018184;28;20042;-81
2022/03/29 03:02:43;;;;;;;17.30;11.02;;;;;;;6.81;80.66;93146.72;5008386;28;20052;-80
2022/03/29 03:05:13;;;;;;;16.55;11.30;;;;;;;7.03;81.47;93182.38;5011822;28;20133;-81
2022/03/29 03:07:39;;;;;;;17.35;11.43;;;;;;;6.91;81.27;93165.00;5012484;28;20394;-81
2022/03/29 03:10:30;;;;;;;17.02;11.52;;;;;;;6.99;80.98;93186.28;5013518;28;20042;-80
2022/03/29 03:12:57;;;;;;;26.73;14.27;;;;;;;6.98;80.03;93180.38;5012830;28;20088;-81
2022/03/29 03:15:25;;;;;;;86.38;36.83;;;;;;;6.88;80.80;93167.16;5013131;28;20056;-80
2022/03/29 03:17:53;;;;;;;41.42;21.92;;;;;;;6.94;79.84;93181.72;5012697;28;20054;-80
2022/03/29 03:20:23;;;;;;;35.25;18.63;;;;;;;6.75;80.65;93155.88;5012640;28;20064;-80
2022/03/29 03:22:52;;;;;;;33.13;16.25;;;;;;;6.88;81.30;93179.91;5012473;28;20045;-80
2022/03/29 03:25:19;;;;;;;25.58;15.40;;;;;;;6.86;80.80;93179.31;5012548;28;20042;-80
2022/03/29 03:27:46;;;;;;;24.58;14.65;;;;;;;6.74;80.91;93163.72;5012801;28;20129;-79
2022/03/29 03:30:14;;;;;;;22.73;13.82;;;;;;;6.81;80.12;93180.66;5012479;28;20057;-80
2022/03/29 03:32:42;;;;;;;26.65;14.73;;;;;;;6.77;82.09;93182.00;5012711;28;20049;-79
2022/03/29 03:35:10;;;;;;;23.50;13.77;;;;;;;6.65;81.19;93169.00;5017278;28;20877;-79
2022/03/29 03:37:39;;;;;;;20.00;13.77;;;;;;;6.65;81.08;93175.84;5010846;28;20042;-80
2022/03/29 03:40:08;;;;;;;35.47;19.00;;;;;;;6.70;81.20;93173.53;5012186;28;20073;-79
2022/03/29 03:42:35;;;;;;;34.65;19.27;;;;;;;6.43;81.33;93141.94;5012190;28;20050;-79
2022/03/29 03:45:03;;;;;;;26.58;16.38;;;;;;;6.68;80.74;93178.03;5022841;28;20464;-79
2022/03/29 03:47:30;;;;;;;24.80;15.15;;;;;;;6.65;80.58;93186.84;5031711;28;20045;-79
2022/03/29 03:49:57;;;;;;;26.13;14.63;;;;;;;6.56;80.90;93172.66;5031760;28;20045;-80
2022/03/29 03:52:24;;;;;;;22.17;12.75;;;;;;;6.52;81.17;93168.88;5031877;28;20046;-79
2022/03/29 03:54:54;;;;;;;22.08;13.30;;;;;;;6.57;81.40;93179.31;5031495;28;20504;-78
2022/03/29 03:57:21;;;;;;;19.23;12.48;;;;;;;6.52;81.54;93191.84;5032365;28;20092;-77
2022/03/29 03:59:50;;;;;;;19.83;12.18;;;;;;;6.44;81.68;93169.81;5025052;28;20609;-77
2022/03/29 04:02:17;;;;;;;19.73;11.10;;;;;;;6.48;81.21;93177.91;5011793;28;20046;-77
2022/03/29 04:04:44;;;;;;;17.52;12.30;;;;;;;6.45;81.29;93184.16;5012341;28;20052;-77
2022/03/29 04:07:11;;;;;;;16.98;11.40;;;;;;;6.23;80.93;93161.22;5011934;28;20050;-80
2022/03/29 04:09:39;;;;;;;20.23;11.45;;;;;;;6.37;81.36;93185.06;5011713;28;20053;-78
2022/03/29 04:12:08;;;;;;;19.58;11.68;;;;;;;6.15;81.67;93153.69;5011583;28;20108;-78
2022/03/29 04:14:36;;;;;;;20.60;12.00;;;;;;;6.32;81.62;93184.03;5009246;28;20776;-77
2022/03/29 04:17:04;;;;;;;20.13;12.98;;;;;;;6.30;81.58;93175.78;5010172;28;20112;-81
2022/03/29 04:19:31;;;;;;;20.42;12.73;;;;;;;6.34;81.96;93187.97;5011143;28;20046;-78
2022/03/29 04:21:58;;;;;;;28.00;16.67;;;;;;;6.07;81.34;93151.28;5011437;28;20045;-77
2022/03/29 04:24:25;;;;;;;32.22;17.13;;;;;;;6.25;81.64;93173.78;5011720;28;20052;-77
2022/03/29 04:26:52;;;;;;;25.92;16.73;;;;;;;6.28;82.27;93188.72;5010957;28;20041;-78
2022/03/29 04:29:22;;;;;;;23.50;14.27;;;;;;;6.18;81.99;93167.81;5012123;28;20445;-77
2022/03/29 04:31:49;;;;;;;26.60;14.50;;;;;;;6.19;81.62;93177.84;5011560;28;20140;-77
2022/03/29 04:34:16;;;;;;;23.10;13.77;;;;;;;6.30;82.65;93186.00;5011334;28;20038;-77
2022/03/29 04:36:43;;;;;;;24.50;13.60;;;;;;;5.99;83.37;93149.59;5011262;28;20112;-77
2022/03/29 04:39:10;;;;;;;22.25;13.55;;;;;;;6.28;83.43;93188.72;5018189;28;20056;-77
2022/03/29 04:41:37;;;;;;;27.50;14.88;;;;;;;6.19;83.76;93172.75;5023620;28;20049;-77
2022/03/29 04:44:04;;;;;;;29.92;13.45;;;;;;;6.16;82.93;93162.94;5022271;28;20056;-77
2022/03/29 04:46:32;;;;;;;28.00;15.80;;;;;;;6.33;82.35;93175.41;5022442;28;20045;-77
2022/03/29 04:48:59;;;;;;;23.00;14.57;;;;;;;6.35;82.54;93169.16;5022088;28;20499;-77
2022/03/29 04:51:26;;;;;;;26.67;15.75;;;;;;;6.32;82.97;93166.97;5018756;28;20049;-78
2022/03/29 04:53:53;;;;;;;25.92;16.35;;;;;;;6.31;82.95;93156.94;5007795;28;20092;-78
2022/03/29 04:56:20;;;;;;;30.25;16.90;;;;;;;6.40;81.96;93160.97;5013844;28;20054;-78
2022/03/29 04:58:46;;;;;;;34.13;19.13;;;;;;;5.99;84.05;93106.25;5017987;28;20050;-78
2022/03/29 05:01:14;;;;;;;31.85;16.50;;;;;;;6.51;83.48;93168.09;5013160;28;20054;-79
2022/03/29 05:03:43;;;;;;;30.65;16.55;;;;;;;6.66;84.14;93185.06;5018822;28;20050;-78
2022/03/29 05:06:10;;;;;;;32.78;16.83;;;;;;;6.75;84.03;93185.75;5020797;28;20068;-78
2022/03/29 05:08:37;;;;;;;25.02;14.63;;;;;;;6.69;84.95;93166.84;5017350;28;20049;-78
2022/03/29 05:11:03;;;;;;;28.63;15.93;;;;;;;6.78;84.09;93163.19;5010607;28;20045;-78
2022/03/29 05:13:30;;;;;;;32.05;17.35;;;;;;;7.02;85.22;93181.59;5010549;28;20045;-78
2022/03/29 05:15:57;;;;;;;31.95;17.88;;;;;;;7.13;85.63;93184.59;5010403;28;20045;-78
2022/03/29 05:18:24;;;;;;;30.33;16.30;;;;;;;7.25;84.84;93177.16;5010469;28;20050;-79
2022/03/29 05:20:52;;;;;;;29.92;16.63;;;;;;;7.37;85.15;93172.31;5010418;28;20810;-79
2022/03/29 05:23:20;;;;;;;27.13;15.40;;;;;;;7.31;84.58;93149.09;5010720;28;20046;-80
2022/03/29 05:25:47;;;;;;;24.98;15.13;;;;;;;7.38;83.97;93136.34;5010448;28;20048;-79
2022/03/29 05:28:14;;;;;;;31.17;16.15;;;;;;;7.78;85.94;93179.13;5009947;28;20048;-80
2022/03/29 05:30:41;;;;;;;24.80;16.33;;;;;;;7.92;88.00;93176.63;5010400;28;20205;-80
2022/03/29 05:33:15;;;;;;;31.52;17.15;;;;;;;7.64;88.07;93109.28;5009930;28;20867;-80
2022/03/29 05:35:43;;;;;;;24.58;16.70;;;;;;;8.05;88.61;93140.81;5008861;28;20137;-80
2022/03/29 05:38:11;;;;;;;19.83;14.40;;;;;;;8.33;88.50;93156.97;5008672;28;20137;-80
2022/03/29 05:40:38;;;;;;;23.63;14.70;;;;;;;8.39;88.67;93146.72;5009696;28;20050;-80
2022/03/29 05:43:11;;;;;;;22.85;14.50;;;;;;;8.28;87.25;93103.81;5010567;28;20096;-79
2022/03/29 05:45:38;;;;;;;28.17;16.27;;;;;;;8.88;86.36;93163.69;5010659;28;20129;-80
2022/03/29 05:50:51;;;;;;;21.27;13.27;;;;;;;9.07;83.67;93136.41;5010246;28;20048;-79
2022/03/29 05:53:19;;;;;;;18.88;12.57;;;;;;;9.45;82.46;93168.25;5010675;28;20399;-79
2022/03/29 05:55:48;;;;;;;21.38;12.50;;;;;;;9.44;81.02;93144.38;5010356;28;20104;-79
2022/03/29 05:58:16;;;;;;;17.50;11.90;;;;;;;9.83;79.94;93167.47;5010359;28;20096;-79
2022/03/29 06:00:44;;;;;;;17.73;12.10;;;;;;;9.96;78.80;93161.47;5010177;28;20100;-79
2022/03/29 06:03:11;;;;;;;18.95;12.40;;;;;;;10.09;77.96;93144.44;5010245;28;20046;-79
2022/03/29 06:05:41;;;;;;;17.55;11.73;;;;;;;10.41;77.14;93170.06;5010232;28;20053;-79
2022/03/29 06:08:09;;;;;;;20.20;12.05;;;;;;;10.64;75.51;93171.31;5009382;28;20064;-80
2022/03/29 06:10:38;;;;;;;15.98;10.90;;;;;;;10.64;73.74;93145.63;5009360;28;20050;-79
2022/03/29 06:13:08;;;;;;;22.30;11.02;;;;;;;10.92;73.18;93162.38;5009325;28;20103;-79
2022/03/29 06:15:35;;;;;;;16.33;10.50;;;;;;;11.15;72.13;93166.88;5009273;28;20404;-79
2022/03/29 06:18:03;;;;;;;20.83;10.88;;;;;;;11.04;70.25;93131.59;5009933;28;20057;-79
2022/03/29 06:20:30;;;;;;;20.10;10.65;;;;;;;11.50;69.58;93168.84;5009394;28;20103;-79
2022/03/29 06:22:57;;;;;;;14.60;9.90;;;;;;;11.61;68.57;93169.91;5009595;28;20049;-79
2022/03/29 06:25:24;;;;;;;15.52;10.10;;;;;;;11.51;68.20;93138.78;4999379;28;20052;-80
2022/03/29 06:27:53;;;;;;;18.60;9.25;;;;;;;11.87;66.85;93162.06;5013806;28;20141;-80
2022/03/29 06:30:20;;;;;;;12.60;8.82;;;;;;;11.77;65.51;93124.78;5009438;28;20137;-80
2022/03/29 06:32:48;;;;;;;18.85;9.40;;;;;;;11.86;64.73;93139.94;5009018;28;20053;-79
2022/03/29 06:35:15;;;;;;;17.38;9.35;;;;;;;12.23;63.58;93162.22;5009384;28;20056;-79
2022/03/29 06:37:42;;;;;;;16.92;8.40;;;;;;;12.36;62.79;93156.84;5008975;28;20045;-80
2022/03/29 06:40:11;;;;;;;15.68;8.65;;;;;;;12.28;61.34;93116.75;5011793;28;20056;-80
2022/03/29 06:42:38;;;;;;;15.20;9.07;;;;;;;12.64;60.22;93146.94;5013101;28;20394;-80
2022/03/29 06:45:08;;;;;;;16.75;8.68;;;;;;;12.76;59.67;93146.91;5012453;28;20399;-80
2022/03/29 06:47:36;;;;;;;14.18;7.50;;;;;;;12.86;58.07;93134.25;5012249;28;20061;-80
2022/03/29 06:50:04;;;;;;;11.50;7.63;;;;;;;12.81;57.14;93108.38;5012288;28;20045;-80
2022/03/29 06:52:35;;;;;;;12.27;7.40;;;;;;;13.07;56.86;93148.38;5014909;28;20050;-80
2022/03/29 06:55:02;;;;;;;14.02;7.53;;;;;;;13.14;56.83;93150.03;5013818;28;20045;-80
2022/03/29 06:57:29;;;;;;;12.48;7.65;;;;;;;13.16;56.01;93153.16;5012252;28;20050;-80
2022/03/29 06:59:56;;;;;;;12.35;7.03;;;;;;;13.12;55.70;93127.06;5012307;28;20140;-81
2022/03/29 07:02:25;;;;;;;14.20;7.00;;;;;;;12.99;55.56;93073.13;5012457;28;20132;-81
2022/03/29 07:04:52;;;;;;;14.38;6.45;;;;;;;13.45;53.43;93110.16;5012096;28;20376;-80
2022/03/29 07:07:18;;;;;;;12.68;6.60;;;;;;;13.45;53.63;93117.91;4970634;28;1217762;-80
2022/03/29 07:12:31;;;;;;;7.57;5.40;;;;;;;13.92;51.25;93143.78;5013203;28;20076;-80
2022/03/29 07:14:58;;;;;;;8.75;5.20;;;;;;;13.64;50.47;93099.66;5013248;28;20479;-80
2022/03/29 07:17:26;;;;;;;14.52;5.05;;;;;;;14.05;49.12;93140.13;5013037;28;20072;-80
2022/03/29 07:19:53;;;;;;;11.77;5.28;;;;;;;13.97;48.80;93110.28;5013435;28;20045;-80
2022/03/29 07:22:23;;;;;;;12.45;5.28;;;;;;;14.09;48.17;93125.72;5013537;28;20046;-80
2022/03/29 07:24:50;;;;;;;13.60;5.15;;;;;;;14.23;48.74;93134.75;5013190;28;20502;-80
2022/03/29 07:27:17;;;;;;;9.57;4.93;;;;;;;14.27;48.71;93141.00;5013099;28;20053;-79
2022/03/29 07:29:44;;;;;;;10.13;4.47;;;;;;;14.39;47.70;93140.13;5013095;28;20061;-80
2022/03/29 07:32:11;;;;;;;8.75;4.13;;;;;;;14.35;47.39;93131.31;5012949;28;20042;-80
2022/03/29 07:34:40;;;;;;;9.77;4.60;;;;;;;14.40;47.84;93136.56;5013371;28;20512;-80
2022/03/29 07:37:07;;;;;;;14.18;5.20;;;;;;;14.54;47.55;93124.09;5013152;28;20057;-80
2022/03/29 07:39:33;;;;;;;9.18;4.43;;;;;;;14.52;46.91;93132.09;5010203;28;20049;-80
2022/03/29 07:42:00;;;;;;;10.10;4.25;;;;;;;14.33;46.97;93090.19;5011706;28;20041;-79
2022/03/29 07:44:27;;;;;;;7.50;5.05;;;;;;;14.50;46.76;93110.09;5012640;28;20061;-80
2022/03/29 07:46:54;;;;;;;8.73;3.95;;;;;;;14.45;45.87;93100.47;5012814;28;20050;-80
2022/03/29 07:49:21;;;;;;;16.10;4.68;;;;;;;14.42;45.93;93106.88;5012338;28;20050;-79
2022/03/29 07:51:49;;;;;;;8.50;3.75;;;;;;;14.61;45.67;93119.56;5012345;28;20046;-80
2022/03/29 07:54:17;;;;;;;7.75;4.63;;;;;;;14.34;46.31;93078.84;5012451;28;20128;-80
2022/03/29 07:56:44;;;;;;;9.27;4.28;;;;;;;14.39;46.02;93093.63;5012397;28;20141;-80
2022/03/29 07:59:11;;;;;;;11.27;4.82;;;;;;;14.64;45.52;93113.13;5012524;28;20414;-79
2022/03/29 08:01:38;;;;;;;12.35;4.93;;;;;;;14.62;46.23;93120.34;5012473;28;20042;-79
2022/03/29 08:04:05;;;;;;;12.32;4.45;;;;;;;14.41;46.25;93063.19;5012711;28;20112;-80
2022/03/29 08:06:32;;;;;;;15.90;4.63;;;;;;;14.36;45.92;93056.16;5012217;28;20072;-80
2022/03/29 08:09:00;;;;;;;11.65;5.15;;;;;;;14.55;45.77;93071.38;5012621;28;20046;-80
2022/03/29 08:11:29;;;;;;;9.45;5.45;;;;;;;14.62;45.74;93076.41;5012512;28;20042;-80
2022/03/29 08:13:56;;;;;;;13.88;4.45;;;;;;;14.49;45.23;93064.59;5012182;28;20054;-80
2022/03/29 08:16:23;;;;;;;15.75;5.60;;;;;;;14.83;45.73;93098.94;5012244;28;20384;-81
2022/03/29 08:18:50;;;;;;;9.63;5.13;;;;;;;14.89;45.50;93091.25;5012309;28;20060;-81
2022/03/29 08:24:02;;;;;;;9.15;4.82;;;;;;;15.31;45.25;93077.00;5012079;28;20558;-81
2022/03/29 08:26:30;;;;;;;10.98;5.15;;;;;;;15.57;44.75;93083.25;5011886;28;20045;-80
2022/03/29 08:28:57;;;;;;;10.93;4.20;;;;;;;15.41;44.23;93027.94;5012026;28;20501;-82
2022/03/29 08:31:24;;;;;;;9.98;5.20;;;;;;;15.32;43.73;93003.53;5011909;28;20053;-81
2022/03/29 08:33:50;;;;;;;31.45;6.20;;;;;;;15.96;43.22;93089.31;5011912;28;20104;-81
2022/03/29 08:36:17;;;;;;;9.65;5.50;;;;;;;15.96;42.85;93068.59;5011608;28;20092;-81
2022/03/29 08:38:44;;;;;;;8.88;4.28;;;;;;;15.81;42.69;93017.41;5011743;28;20056;-82
2022/03/29 08:41:13;;;;;;;8.50;4.43;;;;;;;16.15;42.42;93038.69;5011035;28;20490;-82
2022/03/29 08:43:41;;;;;;;14.02;4.60;;;;;;;16.00;42.13;93007.47;5011310;28;20109;-81
2022/03/29 08:46:08;;;;;;;8.13;4.32;;;;;;;16.29;41.77;93048.63;5011269;28;20064;-82
2022/03/29 08:48:35;;;;;;;8.55;4.00;;;;;;;15.84;41.31;92998.78;5011286;28;20138;-82
2022/03/29 08:51:04;;;;;;;7.45;4.50;;;;;;;15.98;41.67;93014.72;5011243;28;20046;-82
2022/03/29 08:53:31;;;;;;;8.38;4.18;;;;;;;16.13;41.50;93019.22;5011212;28;20052;-82
2022/03/29 08:55:58;;;;;;;6.70;3.70;;;;;;;16.42;41.61;93039.63;5011092;28;20128;-82
2022/03/29 08:58:27;;;;;;;8.45;4.30;;;;;;;16.56;40.61;93019.22;5010805;28;20081;-82
2022/03/29 09:00:54;;;;;;;9.32;4.53;;;;;;;16.59;39.89;93016.16;5010828;28;20077;-81
2022/03/29 09:03:21;;;;;;;7.75;3.95;;;;;;;15.96;39.35;92937.25;5010249;28;20509;-82
2022/03/29 09:05:50;;;;;;;7.25;3.75;;;;;;;16.67;40.58;93022.66;5010599;28;20086;-82
2022/03/29 09:08:17;;;;;;;8.38;3.80;;;;;;;16.68;40.28;93004.25;5010790;28;20050;-82
2022/03/29 09:10:45;;;;;;;8.70;4.25;;;;;;;16.80;39.88;92990.31;5010973;28;20046;-82
2022/03/29 09:13:17;;;;;;;6.93;4.45;;;;;;;17.11;39.01;93000.81;5010574;28;20042;-81
2022/03/29 09:15:45;;;;;;;7.60;4.28;;;;;;;17.12;39.13;92983.44;5010773;28;20064;-81
2022/03/29 09:18:13;;;;;;;12.15;5.10;;;;;;;17.44;38.53;92990.22;5010748;28;20053;-81
2022/03/29 09:20:40;;;;;;;9.80;4.28;;;;;;;17.54;38.23;92979.09;5010429;28;20133;-81
2022/03/29 09:23:13;;;;;;;5.78;4.03;;;;;;;17.52;37.86;92968.16;5010770;28;20046;-80
2022/03/29 09:25:47;;;;;;;9.10;4.25;;;;;;;17.82;37.66;92993.38;5010398;28;20384;-82
2022/03/29 09:28:15;;;;;;;10.70;4.78;;;;;;;17.90;37.25;92979.88;5010275;28;20049;-82
2022/03/29 09:30:45;;;;;;;11.73;5.20;;;;;;;17.90;37.42;92963.50;5010576;28;20771;-81
2022/03/29 09:33:14;;;;;;;10.85;4.28;;;;;;;18.08;37.29;92961.44;5010149;28;20475;-82
2022/03/29 09:35:57;;;;;;;9.23;4.03;;;;;;;18.12;36.70;92972.88;5007797;28;20099;-82
2022/03/29 09:38:29;;;;;;;6.80;3.78;;;;;;;17.90;36.71;92960.91;5008687;28;20075;-82
2022/03/29 09:40:57;;;;;;;10.70;3.95;;;;;;;17.81;36.19;92941.72;5009968;28;20157;-82
2022/03/29 09:43:26;;;;;;;6.70;3.85;;;;;;;18.07;36.94;92965.88;5010307;28;20068;-82
2022/03/29 09:45:56;;;;;;;9.98;4.80;;;;;;;18.09;36.41;92942.97;5010228;28;20057;-82
2022/03/29 09:48:37;;;;;;;13.02;5.10;;;;;;;18.15;35.87;92959.34;5010589;28;20041;-81
2022/03/29 09:51:19;;;;;;;8.68;4.03;;;;;;;18.03;36.15;92960.38;5010524;28;20049;-81
2022/03/29 09:53:47;;;;;;;12.73;4.57;;;;;;;18.04;36.10;92963.75;5009891;28;20049;-81
2022/03/29 09:56:16;;;;;;;13.88;5.22;;;;;;;18.00;36.53;92967.91;5010080;28;20483;-81
2022/03/29 09:58:43;;;;;;;12.82;4.18;;;;;;;17.96;36.93;92948.69;5009710;28;20057;-81
2022/03/29 10:01:24;;;;;;;11.23;4.75;;;;;;;17.89;36.89;92923.75;5009622;28;20468;-82
2022/03/29 10:03:53;;;;;;;8.65;4.00;;;;;;;18.37;36.25;92955.69;5009829;28;20124;-82
2022/03/29 10:06:22;;;;;;;8.13;4.55;;;;;;;18.45;36.22;92939.50;5009963;28;20046;-82
2022/03/29 10:11:38;;;;;;;9.40;4.20;;;;;;;18.30;35.15;92930.72;5009758;28;20120;-81
2022/03/29 10:14:06;;;;;;;9.00;4.15;;;;;;;17.82;35.40;92904.28;5009566;28;20124;-80
2022/03/29 10:16:35;;;;;;;6.43;4.30;;;;;;;18.42;35.96;92930.41;5009410;28;20042;-81
2022/03/29 10:19:02;;;;;;;9.50;4.07;;;;;;;18.54;36.47;92929.34;5009756;28;20446;-82
2022/03/29 10:21:30;;;;;;;9.32;4.45;;;;;;;18.36;35.82;92882.06;5009619;28;20045;-81
2022/03/29 10:23:57;;;;;;;10.63;3.75;;;;;;;18.77;35.65;92919.34;5010218;28;20050;-82
2022/03/29 10:26:26;;;;;;;13.35;4.82;;;;;;;18.51;35.29;92876.03;5009953;28;20049;-82
2022/03/29 10:28:54;;;;;;;7.43;4.35;;;;;;;18.60;34.99;92859.88;5011422;28;20509;-81
2022/03/29 10:31:29;;;;;;;10.07;4.00;;;;;;;19.24;34.56;92919.91;5010689;28;20066;-83
2022/03/29 10:34:18;;;;;;;10.13;4.60;;;;;;;19.33;35.01;92918.28;5009363;28;20050;-81
2022/03/29 10:37:07;;;;;;;9.10;4.10;;;;;;;19.36;34.48;92911.75;5010003;28;20054;-81
2022/03/29 10:39:48;;;;;;;8.65;4.03;;;;;;;19.44;33.62;92913.00;5009886;28;20050;-81
2022/03/29 10:42:30;;;;;;;12.23;4.43;;;;;;;19.10;34.31;92891.09;5009780;28;20084;-81
2022/03/29 10:45:03;;;;;;;7.85;3.67;;;;;;;18.82;34.23;92859.50;5009425;28;20073;-82
2022/03/29 10:47:31;;;;;;;8.82;3.92;;;;;;;19.13;34.20;92898.38;5009689;28;20042;-82
2022/03/29 10:50:00;;;;;;;13.65;4.50;;;;;;;19.05;34.48;92888.53;5009817;28;20052;-81
2022/03/29 10:52:42;;;;;;;8.70;4.15;;;;;;;18.81;34.28;92889.16;5009437;28;20052;-82
2022/03/29 10:55:25;;;;;;;8.05;3.90;;;;;;;18.53;34.13;92839.34;5008854;28;20058;-82
2022/03/29 10:58:12;;;;;;;7.97;4.22;;;;;;;18.87;34.07;92898.50;5008953;28;20578;-81
2022/03/29 11:00:42;;;;;;;9.63;3.83;;;;;;;18.59;33.70;92856.50;5009020;28;20046;-81
2022/03/29 11:03:15;;;;;;;10.93;4.55;;;;;;;18.44;34.64;92870.34;5009048;28;20056;-82
2022/03/29 11:06:17;;;;;;;8.02;3.95;;;;;;;18.36;34.48;92876.88;5009130;28;20049;-82
2022/03/29 11:08:47;;;;;;;9.32;4.43;;;;;;;18.09;35.21;92877.25;5009312;28;20045;-82
2022/03/29 11:11:39;;;;;;;8.05;4.13;;;;;;;17.89;35.59;92842.44;5009800;28;20057;-82
2022/03/29 11:14:35;;;;;;;12.82;4.90;;;;;;;18.06;35.56;92869.94;5008182;28;20048;-82
2022/03/29 11:17:40;;;;;;;7.80;4.22;;;;;;;18.13;35.35;92855.66;5009169;28;20046;-82
2022/03/29 11:20:39;;;;;;;7.90;4.40;;;;;;;18.11;35.58;92855.16;5008617;28;20042;-83
2022/03/29 11:23:09;;;;;;;10.95;4.20;;;;;;;18.03;34.85;92840.06;5005707;28;20358;-81
2022/03/29 11:25:40;;;;;;;11.93;4.18;;;;;;;18.15;35.19;92847.59;5010340;28;20065;-81
2022/03/29 11:28:08;;;;;;;9.13;4.00;;;;;;;18.03;35.21;92825.25;5010274;28;20431;-81
2022/03/29 11:30:35;;;;;;;7.90;4.00;;;;;;;18.15;35.04;92832.75;5011957;28;20100;-82
2022/03/29 11:33:04;;;;;;;9.23;4.57;;;;;;;18.27;35.58;92842.84;5011996;28;20057;-81
2022/03/29 11:35:32;;;;;;;8.63;4.38;;;;;;;18.28;35.13;92831.41;5010089;28;20575;-83
2022/03/29 11:38:10;;;;;;;6.63;3.60;;;;;;;18.40;34.45;92828.50;5012237;28;20076;-83
2022/03/29 11:40:37;;;;;;;7.45;3.70;;;;;;;18.35;34.82;92825.13;5014867;28;20042;-82
2022/03/29 11:43:06;;;;;;;12.27;5.10;;;;;;;17.89;34.89;92765.28;5018930;28;20073;-82
2022/03/29 11:45:40;;;;;;;10.80;4.40;;;;;;;18.18;34.78;92820.28;5012757;28;20499;-82
2022/03/29 11:48:12;;;;;;;10.75;4.80;;;;;;;18.15;35.21;92822.34;5013032;28;20054;-82